sensor_id;sensor_type;location;lat;lon;timestamp;P1;durP1;ratioP1;P2;durP2;ratioP2
40997;SDS011;26740;45.944;12.480;2022-12-29T00:02:11;24.00;;;12.82;;
40997;SDS011;26740;45.944;12.480;2022-12-29T00:04:37;23.08;;;13.05;;
40997;SDS011;26740;45.944;12.480;2022-12-29T00:07:03;23.70;;;12.45;;
40997;SDS011;26740;45.944;12.480;2022-12-29T00:09:29;24.95;;;12.13;;
40997;SDS011;26740;45.944;12.480;2022-12-29T00:11:55;20.27;;;12.38;;
40997;SDS011;26740;45.944;12.480;2022-12-29T00:14:21;21.02;;;11.75;;
40997;SDS011;26740;45.944;12.480;2022-12-29T00:17:05;24.98;;;12.65;;
40997;SDS011;26740;45.944;12.480;2022-12-29T00:19:31;22.65;;;12.38;;
40997;SDS011;26740;45.944;12.480;2022-12-29T00:22:15;22.70;;;11.88;;
40997;SDS011;26740;45.944;12.480;2022-12-29T00:24:59;22.65;;;12.77;;
40997;SDS011;26740;45.944;12.480;2022-12-29T00:27:44;20.83;;;11.82;;
40997;SDS011;26740;45.944;12.480;2022-12-29T00:30:28;21.65;;;12.07;;
40997;SDS011;26740;45.944;12.480;2022-12-29T00:33:14;24.15;;;13.05;;
40997;SDS011;26740;45.944;12.480;2022-12-29T00:36:22;21.85;;;12.20;;
40997;SDS011;26740;45.944;12.480;2022-12-29T00:38:59;22.95;;;12.18;;
40997;SDS011;26740;45.944;12.480;2022-12-29T00:42:05;23.73;;;12.65;;
40997;SDS011;26740;45.944;12.480;2022-12-29T00:44:51;23.00;;;13.00;;
40997;SDS011;26740;45.944;12.480;2022-12-29T00:47:16;21.52;;;12.38;;
40997;SDS011;26740;45.944;12.480;2022-12-29T00:49:42;22.02;;;12.50;;
40997;SDS011;26740;45.944;12.480;2022-12-29T00:52:08;22.38;;;12.35;;
40997;SDS011;26740;45.944;12.480;2022-12-29T00:54:39;21.23;;;11.35;;
40997;SDS011;26740;45.944;12.480;2022-12-29T00:57:07;24.60;;;11.25;;
40997;SDS011;26740;45.944;12.480;2022-12-29T00:59:37;24.80;;;13.70;;
40997;SDS011;26740;45.944;12.480;2022-12-29T01:02:04;18.98;;;11.73;;
40997;SDS011;26740;45.944;12.480;2022-12-29T01:04:30;22.20;;;12.07;;
40997;SDS011;26740;45.944;12.480;2022-12-29T01:06:56;28.08;;;12.65;;
40997;SDS011;26740;45.944;12.480;2022-12-29T01:09:22;21.65;;;11.95;;
40997;SDS011;26740;45.944;12.480;2022-12-29T01:12:06;26.05;;;13.35;;
40997;SDS011;26740;45.944;12.480;2022-12-29T01:14:33;23.70;;;13.43;;
40997;SDS011;26740;45.944;12.480;2022-12-29T01:16:59;27.80;;;14.85;;
40997;SDS011;26740;45.944;12.480;2022-12-29T01:19:25;26.73;;;14.18;;
40997;SDS011;26740;45.944;12.480;2022-12-29T01:21:51;21.20;;;13.15;;
40997;SDS011;26740;45.944;12.480;2022-12-29T01:24:17;19.80;;;12.70;;
40997;SDS011;26740;45.944;12.480;2022-12-29T01:26:44;26.08;;;12.55;;
40997;SDS011;26740;45.944;12.480;2022-12-29T01:29:10;22.48;;;13.40;;
40997;SDS011;26740;45.944;12.480;2022-12-29T01:31:36;22.08;;;13.10;;
40997;SDS011;26740;45.944;12.480;2022-12-29T01:34:01;23.92;;;12.57;;
40997;SDS011;26740;45.944;12.480;2022-12-29T01:36:28;23.38;;;12.45;;
40997;SDS011;26740;45.944;12.480;2022-12-29T01:38:55;26.75;;;12.60;;
40997;SDS011;26740;45.944;12.480;2022-12-29T01:41:20;25.20;;;12.88;;
40997;SDS011;26740;45.944;12.480;2022-12-29T01:46:53;21.58;;;10.98;;
40997;SDS011;26740;45.944;12.480;2022-12-29T01:49:21;22.55;;;11.55;;
40997;SDS011;26740;45.944;12.480;2022-12-29T01:51:51;23.35;;;12.32;;
40997;SDS011;26740;45.944;12.480;2022-12-29T01:54:31;23.63;;;12.70;;
40997;SDS011;26740;45.944;12.480;2022-12-29T01:57:05;25.48;;;11.68;;
40997;SDS011;26740;45.944;12.480;2022-12-29T02:02:04;24.77;;;11.73;;
40997;SDS011;26740;45.944;12.480;2022-12-29T02:04:31;23.02;;;10.80;;
40997;SDS011;26740;45.944;12.480;2022-12-29T02:07:03;19.13;;;11.55;;
40997;SDS011;26740;45.944;12.480;2022-12-29T02:09:32;21.13;;;11.80;;
40997;SDS011;26740;45.944;12.480;2022-12-29T02:11:58;21.40;;;12.32;;
40997;SDS011;26740;45.944;12.480;2022-12-29T02:14:25;22.98;;;11.55;;
40997;SDS011;26740;45.944;12.480;2022-12-29T02:27:26;20.40;;;10.00;;
40997;SDS011;26740;45.944;12.480;2022-12-29T02:30:07;18.40;;;9.95;;
40997;SDS011;26740;45.944;12.480;2022-12-29T02:32:52;21.83;;;10.40;;
40997;SDS011;26740;45.944;12.480;2022-12-29T02:35:33;17.30;;;9.80;;
40997;SDS011;26740;45.944;12.480;2022-12-29T02:41:05;20.50;;;10.15;;
40997;SDS011;26740;45.944;12.480;2022-12-29T02:43:44;17.67;;;9.70;;
40997;SDS011;26740;45.944;12.480;2022-12-29T02:46:32;17.65;;;9.50;;
40997;SDS011;26740;45.944;12.480;2022-12-29T02:49:48;16.05;;;9.48;;
40997;SDS011;26740;45.944;12.480;2022-12-29T02:52:30;18.83;;;9.77;;
40997;SDS011;26740;45.944;12.480;2022-12-29T02:55:02;16.95;;;9.60;;
40997;SDS011;26740;45.944;12.480;2022-12-29T02:57:30;21.38;;;9.65;;
40997;SDS011;26740;45.944;12.480;2022-12-29T03:00:07;14.02;;;9.13;;
40997;SDS011;26740;45.944;12.480;2022-12-29T03:08:26;16.05;;;8.85;;
40997;SDS011;26740;45.944;12.480;2022-12-29T03:16:46;16.00;;;9.15;;
40997;SDS011;26740;45.944;12.480;2022-12-29T03:19:16;18.30;;;9.02;;
40997;SDS011;26740;45.944;12.480;2022-12-29T03:21:59;13.95;;;8.23;;
40997;SDS011;26740;45.944;12.480;2022-12-29T03:24:44;17.58;;;10.13;;
40997;SDS011;26740;45.944;12.480;2022-12-29T03:27:16;19.13;;;9.68;;
40997;SDS011;26740;45.944;12.480;2022-12-29T03:29:46;18.77;;;9.52;;
40997;SDS011;26740;45.944;12.480;2022-12-29T03:32:20;16.05;;;9.30;;
40997;SDS011;26740;45.944;12.480;2022-12-29T03:34:49;16.85;;;8.77;;
40997;SDS011;26740;45.944;12.480;2022-12-29T03:37:20;16.65;;;9.02;;
40997;SDS011;26740;45.944;12.480;2022-12-29T03:39:50;15.02;;;9.15;;
40997;SDS011;26740;45.944;12.480;2022-12-29T03:42:17;17.27;;;10.27;;
40997;SDS011;26740;45.944;12.480;2022-12-29T03:44:46;20.85;;;10.00;;
40997;SDS011;26740;45.944;12.480;2022-12-29T03:47:13;18.73;;;8.75;;
40997;SDS011;26740;45.944;12.480;2022-12-29T03:49:40;14.02;;;8.80;;
40997;SDS011;26740;45.944;12.480;2022-12-29T03:52:06;16.55;;;9.50;;
40997;SDS011;26740;45.944;12.480;2022-12-29T03:54:31;16.67;;;8.88;;
40997;SDS011;26740;45.944;12.480;2022-12-29T03:56:57;15.77;;;10.02;;
40997;SDS011;26740;45.944;12.480;2022-12-29T03:59:23;15.07;;;8.75;;
40997;SDS011;26740;45.944;12.480;2022-12-29T04:01:49;18.30;;;9.70;;
40997;SDS011;26740;45.944;12.480;2022-12-29T04:04:14;13.55;;;8.70;;
40997;SDS011;26740;45.944;12.480;2022-12-29T04:06:40;17.80;;;8.30;;
40997;SDS011;26740;45.944;12.480;2022-12-29T04:09:06;14.65;;;8.63;;
40997;SDS011;26740;45.944;12.480;2022-12-29T04:11:32;17.58;;;9.85;;
40997;SDS011;26740;45.944;12.480;2022-12-29T04:13:57;16.65;;;9.60;;
40997;SDS011;26740;45.944;12.480;2022-12-29T04:16:23;14.55;;;8.32;;
40997;SDS011;26740;45.944;12.480;2022-12-29T04:18:49;12.75;;;8.13;;
40997;SDS011;26740;45.944;12.480;2022-12-29T04:21:14;15.98;;;9.02;;
40997;SDS011;26740;45.944;12.480;2022-12-29T04:23:40;19.75;;;9.50;;
40997;SDS011;26740;45.944;12.480;2022-12-29T04:26:06;16.75;;;9.23;;
40997;SDS011;26740;45.944;12.480;2022-12-29T04:28:33;14.38;;;9.10;;
40997;SDS011;26740;45.944;12.480;2022-12-29T04:30:59;14.30;;;8.50;;
40997;SDS011;26740;45.944;12.480;2022-12-29T04:33:25;16.33;;;9.35;;
40997;SDS011;26740;45.944;12.480;2022-12-29T04:35:51;14.98;;;8.55;;
40997;SDS011;26740;45.944;12.480;2022-12-29T04:38:19;19.88;;;9.82;;
40997;SDS011;26740;45.944;12.480;2022-12-29T04:40:45;16.92;;;8.93;;
40997;SDS011;26740;45.944;12.480;2022-12-29T04:43:11;16.80;;;9.25;;
40997;SDS011;26740;45.944;12.480;2022-12-29T04:45:38;14.35;;;8.88;;
40997;SDS011;26740;45.944;12.480;2022-12-29T04:48:07;16.35;;;8.98;;
40997;SDS011;26740;45.944;12.480;2022-12-29T04:50:33;14.77;;;8.90;;
40997;SDS011;26740;45.944;12.480;2022-12-29T04:52:59;14.35;;;8.52;;
40997;SDS011;26740;45.944;12.480;2022-12-29T04:55:25;12.82;;;8.38;;
40997;SDS011;26740;45.944;12.480;2022-12-29T04:57:51;15.57;;;9.05;;
40997;SDS011;26740;45.944;12.480;2022-12-29T05:00:16;13.93;;;8.57;;
40997;SDS011;26740;45.944;12.480;2022-12-29T05:02:42;17.30;;;8.60;;
40997;SDS011;26740;45.944;12.480;2022-12-29T05:05:08;18.48;;;9.45;;
40997;SDS011;26740;45.944;12.480;2022-12-29T05:07:34;14.27;;;8.18;;
40997;SDS011;26740;45.944;12.480;2022-12-29T05:10:00;15.38;;;7.82;;
40997;SDS011;26740;45.944;12.480;2022-12-29T05:12:29;12.80;;;7.93;;
40997;SDS011;26740;45.944;12.480;2022-12-29T05:14:55;17.83;;;9.20;;
40997;SDS011;26740;45.944;12.480;2022-12-29T05:17:21;19.88;;;8.48;;
40997;SDS011;26740;45.944;12.480;2022-12-29T05:19:46;14.00;;;8.30;;
40997;SDS011;26740;45.944;12.480;2022-12-29T05:22:12;14.50;;;8.55;;
40997;SDS011;26740;45.944;12.480;2022-12-29T05:24:38;15.35;;;8.10;;
40997;SDS011;26740;45.944;12.480;2022-12-29T05:27:03;12.30;;;7.22;;
40997;SDS011;26740;45.944;12.480;2022-12-29T05:29:29;17.02;;;7.65;;
40997;SDS011;26740;45.944;12.480;2022-12-29T05:31:54;14.75;;;8.70;;
40997;SDS011;26740;45.944;12.480;2022-12-29T05:34:20;13.95;;;8.50;;
40997;SDS011;26740;45.944;12.480;2022-12-29T05:36:45;15.90;;;8.85;;
40997;SDS011;26740;45.944;12.480;2022-12-29T05:39:11;21.25;;;9.18;;
40997;SDS011;26740;45.944;12.480;2022-12-29T05:41:37;17.52;;;9.23;;
40997;SDS011;26740;45.944;12.480;2022-12-29T05:44:02;16.90;;;8.68;;
40997;SDS011;26740;45.944;12.480;2022-12-29T05:46:28;16.80;;;7.55;;
40997;SDS011;26740;45.944;12.480;2022-12-29T05:48:54;13.60;;;7.22;;
40997;SDS011;26740;45.944;12.480;2022-12-29T05:51:19;14.57;;;7.35;;
40997;SDS011;26740;45.944;12.480;2022-12-29T05:53:45;13.40;;;7.10;;
40997;SDS011;26740;45.944;12.480;2022-12-29T05:56:10;15.75;;;6.80;;
40997;SDS011;26740;45.944;12.480;2022-12-29T05:58:36;15.73;;;8.23;;
40997;SDS011;26740;45.944;12.480;2022-12-29T06:01:01;15.98;;;8.27;;
40997;SDS011;26740;45.944;12.480;2022-12-29T06:03:27;16.90;;;7.25;;
40997;SDS011;26740;45.944;12.480;2022-12-29T06:05:53;15.15;;;7.82;;
40997;SDS011;26740;45.944;12.480;2022-12-29T06:08:18;16.63;;;8.68;;
40997;SDS011;26740;45.944;12.480;2022-12-29T06:10:44;13.82;;;7.43;;
40997;SDS011;26740;45.944;12.480;2022-12-29T06:13:09;16.05;;;8.57;;
40997;SDS011;26740;45.944;12.480;2022-12-29T06:15:35;14.45;;;8.70;;
40997;SDS011;26740;45.944;12.480;2022-12-29T06:18:00;15.40;;;7.97;;
40997;SDS011;26740;45.944;12.480;2022-12-29T06:20:26;12.73;;;6.78;;
40997;SDS011;26740;45.944;12.480;2022-12-29T06:22:52;16.83;;;7.65;;
40997;SDS011;26740;45.944;12.480;2022-12-29T06:25:18;17.80;;;7.95;;
40997;SDS011;26740;45.944;12.480;2022-12-29T06:27:44;15.50;;;8.30;;
40997;SDS011;26740;45.944;12.480;2022-12-29T06:30:09;13.48;;;8.05;;
40997;SDS011;26740;45.944;12.480;2022-12-29T06:32:36;20.92;;;8.30;;
40997;SDS011;26740;45.944;12.480;2022-12-29T06:35:02;16.48;;;8.70;;
40997;SDS011;26740;45.944;12.480;2022-12-29T06:37:28;17.55;;;8.48;;
40997;SDS011;26740;45.944;12.480;2022-12-29T06:39:54;19.48;;;9.07;;
40997;SDS011;26740;45.944;12.480;2022-12-29T06:42:19;14.68;;;8.10;;
40997;SDS011;26740;45.944;12.480;2022-12-29T06:44:45;19.65;;;7.85;;
40997;SDS011;26740;45.944;12.480;2022-12-29T06:47:10;14.55;;;7.70;;
40997;SDS011;26740;45.944;12.480;2022-12-29T06:49:36;13.07;;;7.88;;
40997;SDS011;26740;45.944;12.480;2022-12-29T06:52:02;23.45;;;11.77;;
40997;SDS011;26740;45.944;12.480;2022-12-29T06:54:29;20.73;;;11.05;;
40997;SDS011;26740;45.944;12.480;2022-12-29T06:56:58;19.02;;;11.45;;
40997;SDS011;26740;45.944;12.480;2022-12-29T06:59:24;31.95;;;13.52;;
40997;SDS011;26740;45.944;12.480;2022-12-29T07:01:50;53.72;;;23.60;;
40997;SDS011;26740;45.944;12.480;2022-12-29T07:04:16;42.95;;;17.95;;
40997;SDS011;26740;45.944;12.480;2022-12-29T07:06:42;29.40;;;14.68;;
40997;SDS011;26740;45.944;12.480;2022-12-29T07:09:08;36.42;;;16.23;;
40997;SDS011;26740;45.944;12.480;2022-12-29T07:11:34;31.90;;;15.13;;
40997;SDS011;26740;45.944;12.480;2022-12-29T07:14:00;20.88;;;9.95;;
40997;SDS011;26740;45.944;12.480;2022-12-29T07:16:26;16.77;;;8.00;;
40997;SDS011;26740;45.944;12.480;2022-12-29T07:18:52;16.30;;;7.85;;
40997;SDS011;26740;45.944;12.480;2022-12-29T07:21:17;13.35;;;8.02;;
40997;SDS011;26740;45.944;12.480;2022-12-29T07:23:43;13.50;;;7.88;;
40997;SDS011;26740;45.944;12.480;2022-12-29T07:26:10;13.93;;;7.78;;
40997;SDS011;26740;45.944;12.480;2022-12-29T07:28:37;15.27;;;8.65;;
40997;SDS011;26740;45.944;12.480;2022-12-29T07:31:04;10.48;;;7.07;;
40997;SDS011;26740;45.944;12.480;2022-12-29T07:33:30;10.77;;;7.00;;
40997;SDS011;26740;45.944;12.480;2022-12-29T07:35:58;12.55;;;7.03;;
40997;SDS011;26740;45.944;12.480;2022-12-29T07:38:24;12.18;;;6.97;;
40997;SDS011;26740;45.944;12.480;2022-12-29T07:40:49;15.88;;;7.65;;
40997;SDS011;26740;45.944;12.480;2022-12-29T07:43:15;21.35;;;8.05;;
40997;SDS011;26740;45.944;12.480;2022-12-29T07:45:41;16.48;;;8.88;;
40997;SDS011;26740;45.944;12.480;2022-12-29T07:48:06;15.50;;;8.70;;
40997;SDS011;26740;45.944;12.480;2022-12-29T07:50:33;15.40;;;9.30;;
40997;SDS011;26740;45.944;12.480;2022-12-29T07:53:00;16.40;;;10.18;;
40997;SDS011;26740;45.944;12.480;2022-12-29T07:55:26;16.50;;;9.65;;
40997;SDS011;26740;45.944;12.480;2022-12-29T07:57:54;15.80;;;9.32;;
40997;SDS011;26740;45.944;12.480;2022-12-29T08:00:21;21.42;;;9.35;;
40997;SDS011;26740;45.944;12.480;2022-12-29T08:02:48;20.73;;;10.30;;
40997;SDS011;26740;45.944;12.480;2022-12-29T08:05:14;15.98;;;8.45;;
40997;SDS011;26740;45.944;12.480;2022-12-29T08:07:42;25.15;;;8.38;;
40997;SDS011;26740;45.944;12.480;2022-12-29T08:10:09;13.73;;;7.00;;
40997;SDS011;26740;45.944;12.480;2022-12-29T08:12:35;17.10;;;8.30;;
40997;SDS011;26740;45.944;12.480;2022-12-29T08:15:02;14.93;;;8.77;;
40997;SDS011;26740;45.944;12.480;2022-12-29T08:17:28;18.35;;;9.38;;
40997;SDS011;26740;45.944;12.480;2022-12-29T08:19:54;19.08;;;10.90;;
40997;SDS011;26740;45.944;12.480;2022-12-29T08:22:19;22.80;;;9.18;;
40997;SDS011;26740;45.944;12.480;2022-12-29T08:24:45;19.10;;;9.68;;
40997;SDS011;26740;45.944;12.480;2022-12-29T08:27:11;18.45;;;8.93;;
40997;SDS011;26740;45.944;12.480;2022-12-29T08:29:36;21.88;;;10.00;;
40997;SDS011;26740;45.944;12.480;2022-12-29T08:32:02;36.10;;;13.60;;
40997;SDS011;26740;45.944;12.480;2022-12-29T08:34:28;19.92;;;10.63;;
40997;SDS011;26740;45.944;12.480;2022-12-29T08:36:56;27.40;;;12.95;;
40997;SDS011;26740;45.944;12.480;2022-12-29T08:39:22;21.35;;;10.98;;
40997;SDS011;26740;45.944;12.480;2022-12-29T08:41:47;154.30;;;65.38;;
40997;SDS011;26740;45.944;12.480;2022-12-29T08:44:13;20.80;;;12.55;;
40997;SDS011;26740;45.944;12.480;2022-12-29T08:46:39;18.48;;;9.45;;
40997;SDS011;26740;45.944;12.480;2022-12-29T08:49:04;28.30;;;13.90;;
40997;SDS011;26740;45.944;12.480;2022-12-29T08:51:30;26.02;;;14.88;;
40997;SDS011;26740;45.944;12.480;2022-12-29T08:53:55;29.90;;;16.70;;
40997;SDS011;26740;45.944;12.480;2022-12-29T08:56:21;30.17;;;14.15;;
40997;SDS011;26740;45.944;12.480;2022-12-29T08:58:49;26.10;;;13.80;;
40997;SDS011;26740;45.944;12.480;2022-12-29T09:01:15;22.80;;;13.52;;
40997;SDS011;26740;45.944;12.480;2022-12-29T09:03:41;23.80;;;13.50;;
40997;SDS011;26740;45.944;12.480;2022-12-29T09:06:07;23.15;;;12.73;;
40997;SDS011;26740;45.944;12.480;2022-12-29T09:08:32;24.23;;;12.27;;
40997;SDS011;26740;45.944;12.480;2022-12-29T09:11:11;23.50;;;12.18;;
40997;SDS011;26740;45.944;12.480;2022-12-29T09:13:44;22.85;;;13.68;;
40997;SDS011;26740;45.944;12.480;2022-12-29T09:16:11;24.73;;;14.07;;
40997;SDS011;26740;45.944;12.480;2022-12-29T09:18:37;26.35;;;14.15;;
40997;SDS011;26740;45.944;12.480;2022-12-29T09:21:04;28.27;;;13.18;;
40997;SDS011;26740;45.944;12.480;2022-12-29T09:23:31;24.15;;;13.70;;
40997;SDS011;26740;45.944;12.480;2022-12-29T09:25:58;22.38;;;13.43;;
40997;SDS011;26740;45.944;12.480;2022-12-29T09:28:23;23.13;;;13.10;;
40997;SDS011;26740;45.944;12.480;2022-12-29T09:30:50;28.40;;;14.57;;
40997;SDS011;26740;45.944;12.480;2022-12-29T09:33:16;24.23;;;14.38;;
40997;SDS011;26740;45.944;12.480;2022-12-29T09:35:48;22.80;;;14.32;;
40997;SDS011;26740;45.944;12.480;2022-12-29T09:38:17;22.00;;;12.18;;
40997;SDS011;26740;45.944;12.480;2022-12-29T09:40:44;19.92;;;11.98;;
40997;SDS011;26740;45.944;12.480;2022-12-29T09:43:26;20.00;;;11.73;;
40997;SDS011;26740;45.944;12.480;2022-12-29T09:49:16;25.60;;;13.60;;
40997;SDS011;26740;45.944;12.480;2022-12-29T09:52:05;19.13;;;11.68;;
40997;SDS011;26740;45.944;12.480;2022-12-29T09:54:55;25.83;;;11.27;;
40997;SDS011;26740;45.944;12.480;2022-12-29T09:57:32;20.25;;;11.88;;
40997;SDS011;26740;45.944;12.480;2022-12-29T10:05:16;17.83;;;9.85;;
40997;SDS011;26740;45.944;12.480;2022-12-29T10:07:52;16.58;;;9.73;;
40997;SDS011;26740;45.944;12.480;2022-12-29T10:10:38;18.38;;;10.15;;
40997;SDS011;26740;45.944;12.480;2022-12-29T10:13:13;20.53;;;10.70;;
40997;SDS011;26740;45.944;12.480;2022-12-29T10:21:08;18.52;;;10.48;;
40997;SDS011;26740;45.944;12.480;2022-12-29T10:23:48;23.55;;;17.48;;
40997;SDS011;26740;45.944;12.480;2022-12-29T10:26:17;20.15;;;11.52;;
40997;SDS011;26740;45.944;12.480;2022-12-29T10:34:01;19.88;;;11.20;;
40997;SDS011;26740;45.944;12.480;2022-12-29T10:36:34;20.83;;;12.10;;
40997;SDS011;26740;45.944;12.480;2022-12-29T10:39:25;25.23;;;12.07;;
40997;SDS011;26740;45.944;12.480;2022-12-29T10:42:20;18.75;;;10.43;;
40997;SDS011;26740;45.944;12.480;2022-12-29T10:44:53;20.40;;;9.98;;
40997;SDS011;26740;45.944;12.480;2022-12-29T10:47:21;19.92;;;11.95;;
40997;SDS011;26740;45.944;12.480;2022-12-29T10:49:50;21.67;;;12.40;;
40997;SDS011;26740;45.944;12.480;2022-12-29T10:52:17;20.63;;;11.90;;
40997;SDS011;26740;45.944;12.480;2022-12-29T10:54:49;25.73;;;13.25;;
40997;SDS011;26740;45.944;12.480;2022-12-29T10:59:54;25.23;;;13.73;;
40997;SDS011;26740;45.944;12.480;2022-12-29T11:02:26;26.85;;;14.10;;
40997;SDS011;26740;45.944;12.480;2022-12-29T11:07:43;26.13;;;13.68;;
40997;SDS011;26740;45.944;12.480;2022-12-29T11:13:00;28.13;;;13.13;;
40997;SDS011;26740;45.944;12.480;2022-12-29T11:15:27;25.77;;;14.63;;
40997;SDS011;26740;45.944;12.480;2022-12-29T11:18:03;27.13;;;14.48;;
40997;SDS011;26740;45.944;12.480;2022-12-29T11:20:34;26.17;;;13.45;;
40997;SDS011;26740;45.944;12.480;2022-12-29T11:23:03;28.92;;;15.18;;
40997;SDS011;26740;45.944;12.480;2022-12-29T11:25:30;27.67;;;14.32;;
40997;SDS011;26740;45.944;12.480;2022-12-29T11:27:57;28.45;;;14.45;;
40997;SDS011;26740;45.944;12.480;2022-12-29T11:30:39;26.13;;;14.30;;
40997;SDS011;26740;45.944;12.480;2022-12-29T11:33:05;25.02;;;13.80;;
40997;SDS011;26740;45.944;12.480;2022-12-29T11:35:35;24.75;;;12.90;;
40997;SDS011;26740;45.944;12.480;2022-12-29T11:38:01;27.23;;;13.63;;
40997;SDS011;26740;45.944;12.480;2022-12-29T11:40:29;25.95;;;13.13;;
40997;SDS011;26740;45.944;12.480;2022-12-29T11:42:58;31.48;;;14.45;;
40997;SDS011;26740;45.944;12.480;2022-12-29T11:45:30;28.17;;;14.05;;
40997;SDS011;26740;45.944;12.480;2022-12-29T11:47:59;30.92;;;14.77;;
40997;SDS011;26740;45.944;12.480;2022-12-29T11:50:32;27.40;;;14.90;;
40997;SDS011;26740;45.944;12.480;2022-12-29T11:56:02;34.88;;;16.05;;
40997;SDS011;26740;45.944;12.480;2022-12-29T11:58:32;24.63;;;13.88;;
40997;SDS011;26740;45.944;12.480;2022-12-29T12:04:14;26.83;;;14.35;;
40997;SDS011;26740;45.944;12.480;2022-12-29T12:06:49;32.07;;;15.87;;
40997;SDS011;26740;45.944;12.480;2022-12-29T12:09:45;30.17;;;15.73;;
40997;SDS011;26740;45.944;12.480;2022-12-29T12:12:44;30.95;;;14.68;;
40997;SDS011;26740;45.944;12.480;2022-12-29T12:15:22;30.17;;;16.50;;
40997;SDS011;26740;45.944;12.480;2022-12-29T12:18:02;26.45;;;14.45;;
40997;SDS011;26740;45.944;12.480;2022-12-29T12:20:38;26.10;;;15.18;;
40997;SDS011;26740;45.944;12.480;2022-12-29T12:23:14;28.40;;;14.63;;
40997;SDS011;26740;45.944;12.480;2022-12-29T12:25:51;26.35;;;15.57;;
40997;SDS011;26740;45.944;12.480;2022-12-29T12:30:56;26.67;;;15.43;;
40997;SDS011;26740;45.944;12.480;2022-12-29T12:33:29;24.93;;;13.20;;
40997;SDS011;26740;45.944;12.480;2022-12-29T12:38:54;28.45;;;15.25;;
40997;SDS011;26740;45.944;12.480;2022-12-29T12:57:53;28.88;;;13.88;;
40997;SDS011;26740;45.944;12.480;2022-12-29T13:00:35;28.17;;;14.98;;
40997;SDS011;26740;45.944;12.480;2022-12-29T13:03:44;22.10;;;13.50;;
40997;SDS011;26740;45.944;12.480;2022-12-29T13:09:19;31.52;;;15.45;;
40997;SDS011;26740;45.944;12.480;2022-12-29T13:14:38;46.13;;;24.63;;
40997;SDS011;26740;45.944;12.480;2022-12-29T13:23:06;30.48;;;12.50;;
40997;SDS011;26740;45.944;12.480;2022-12-29T13:26:01;24.30;;;13.30;;
40997;SDS011;26740;45.944;12.480;2022-12-29T13:28:55;25.60;;;13.30;;
40997;SDS011;26740;45.944;12.480;2022-12-29T13:31:34;25.88;;;14.05;;
40997;SDS011;26740;45.944;12.480;2022-12-29T13:36:58;24.67;;;13.57;;
40997;SDS011;26740;45.944;12.480;2022-12-29T13:39:37;28.08;;;14.32;;
40997;SDS011;26740;45.944;12.480;2022-12-29T13:42:07;26.90;;;14.13;;
40997;SDS011;26740;45.944;12.480;2022-12-29T13:44:35;28.60;;;13.73;;
40997;SDS011;26740;45.944;12.480;2022-12-29T13:47:35;27.45;;;14.40;;
40997;SDS011;26740;45.944;12.480;2022-12-29T13:50:08;25.08;;;13.88;;
40997;SDS011;26740;45.944;12.480;2022-12-29T13:55:49;24.33;;;14.57;;
40997;SDS011;26740;45.944;12.480;2022-12-29T13:58:39;31.02;;;15.05;;
40997;SDS011;26740;45.944;12.480;2022-12-29T14:01:23;26.77;;;14.52;;
40997;SDS011;26740;45.944;12.480;2022-12-29T14:03:59;28.02;;;14.85;;
40997;SDS011;26740;45.944;12.480;2022-12-29T14:06:31;27.17;;;14.27;;
40997;SDS011;26740;45.944;12.480;2022-12-29T14:09:02;29.98;;;15.55;;
40997;SDS011;26740;45.944;12.480;2022-12-29T14:11:37;24.38;;;14.55;;
40997;SDS011;26740;45.944;12.480;2022-12-29T14:14:12;30.55;;;15.82;;
40997;SDS011;26740;45.944;12.480;2022-12-29T14:16:46;26.02;;;14.98;;
40997;SDS011;26740;45.944;12.480;2022-12-29T14:21:51;23.70;;;14.43;;
40997;SDS011;26740;45.944;12.480;2022-12-29T14:25:04;24.65;;;14.23;;
40997;SDS011;26740;45.944;12.480;2022-12-29T14:34:47;23.17;;;14.18;;
40997;SDS011;26740;45.944;12.480;2022-12-29T14:37:32;27.63;;;14.63;;
40997;SDS011;26740;45.944;12.480;2022-12-29T14:40:19;25.00;;;15.40;;
40997;SDS011;26740;45.944;12.480;2022-12-29T14:42:55;30.05;;;15.00;;
40997;SDS011;26740;45.944;12.480;2022-12-29T14:45:29;29.97;;;16.20;;
40997;SDS011;26740;45.944;12.480;2022-12-29T14:52:53;27.48;;;15.43;;
40997;SDS011;26740;45.944;12.480;2022-12-29T15:01:19;26.05;;;14.77;;
40997;SDS011;26740;45.944;12.480;2022-12-29T15:04:06;31.75;;;17.10;;
40997;SDS011;26740;45.944;12.480;2022-12-29T15:06:40;33.30;;;15.77;;
40997;SDS011;26740;45.944;12.480;2022-12-29T15:14:48;34.42;;;17.48;;
40997;SDS011;26740;45.944;12.480;2022-12-29T15:17:26;39.85;;;18.85;;
40997;SDS011;26740;45.944;12.480;2022-12-29T15:19:55;36.28;;;19.58;;
40997;SDS011;26740;45.944;12.480;2022-12-29T15:22:23;38.60;;;18.52;;
40997;SDS011;26740;45.944;12.480;2022-12-29T15:24:50;36.17;;;17.45;;
40997;SDS011;26740;45.944;12.480;2022-12-29T15:27:21;38.72;;;17.77;;
40997;SDS011;26740;45.944;12.480;2022-12-29T15:29:50;40.50;;;20.00;;
40997;SDS011;26740;45.944;12.480;2022-12-29T15:32:27;35.08;;;18.80;;
40997;SDS011;26740;45.944;12.480;2022-12-29T15:35:09;31.48;;;17.98;;
40997;SDS011;26740;45.944;12.480;2022-12-29T15:37:48;38.50;;;19.45;;
40997;SDS011;26740;45.944;12.480;2022-12-29T15:40:24;32.58;;;17.83;;
40997;SDS011;26740;45.944;12.480;2022-12-29T15:45:50;33.33;;;17.48;;
40997;SDS011;26740;45.944;12.480;2022-12-29T15:48:22;34.50;;;18.33;;
40997;SDS011;26740;45.944;12.480;2022-12-29T15:50:49;37.55;;;18.98;;
40997;SDS011;26740;45.944;12.480;2022-12-29T15:53:23;39.67;;;18.75;;
40997;SDS011;26740;45.944;12.480;2022-12-29T15:55:54;31.13;;;17.33;;
40997;SDS011;26740;45.944;12.480;2022-12-29T15:58:29;38.53;;;17.90;;
40997;SDS011;26740;45.944;12.480;2022-12-29T16:00:59;42.28;;;18.75;;
40997;SDS011;26740;45.944;12.480;2022-12-29T16:03:27;39.25;;;19.55;;
40997;SDS011;26740;45.944;12.480;2022-12-29T16:06:07;41.53;;;21.95;;
40997;SDS011;26740;45.944;12.480;2022-12-29T16:08:39;41.28;;;23.33;;
40997;SDS011;26740;45.944;12.480;2022-12-29T16:11:27;43.17;;;21.33;;
40997;SDS011;26740;45.944;12.480;2022-12-29T16:14:02;41.45;;;20.08;;
40997;SDS011;26740;45.944;12.480;2022-12-29T16:16:38;41.90;;;22.08;;
40997;SDS011;26740;45.944;12.480;2022-12-29T16:19:10;54.22;;;25.67;;
40997;SDS011;26740;45.944;12.480;2022-12-29T16:21:46;60.78;;;27.60;;
40997;SDS011;26740;45.944;12.480;2022-12-29T16:24:14;92.50;;;42.10;;
40997;SDS011;26740;45.944;12.480;2022-12-29T16:30:06;99.15;;;48.25;;
40997;SDS011;26740;45.944;12.480;2022-12-29T16:32:46;94.50;;;47.15;;
40997;SDS011;26740;45.944;12.480;2022-12-29T16:38:13;71.40;;;36.30;;
40997;SDS011;26740;45.944;12.480;2022-12-29T16:40:55;74.93;;;34.67;;
40997;SDS011;26740;45.944;12.480;2022-12-29T16:43:28;70.70;;;34.80;;
40997;SDS011;26740;45.944;12.480;2022-12-29T16:48:28;65.35;;;32.15;;
40997;SDS011;26740;45.944;12.480;2022-12-29T16:51:12;57.55;;;31.25;;
40997;SDS011;26740;45.944;12.480;2022-12-29T16:53:52;50.58;;;25.25;;
40997;SDS011;26740;45.944;12.480;2022-12-29T16:56:21;52.80;;;27.33;;
40997;SDS011;26740;45.944;12.480;2022-12-29T17:01:41;52.47;;;26.05;;